Data for 08/28/2016

Time Sea-Level Adjusted Pressure Absolute Pressure Temperature Relative Humidity Dew Point   
(mb) (inHg) (mb) (inHg) (C) (F) (%) (C) (F)
00:05 1016 30 845 24.95 19.2 66.6 23 -2.5 27.4
00:10 1016 30 845 24.95 19 66.2 22 -2.8 27
00:15 1016 30 845 24.95 18.9 66 22 -3.1 26.5
00:20 1016 30 845 24.95 18.9 66.1 23 -2.6 27.3
00:25 1016 30 845 24.95 19.1 66.3 22 -2.9 26.7
00:30 1016 30 845 24.95 19.1 66.3 23 -2.5 27.5
00:35 1016 30 845 24.95 18.3 64.9 29 0.1 32.1
00:40 1016 30 845 24.95 16.7 62.1 28 -1.8 28.7
00:45 1016 30 845 24.95 17.1 62.7 27 -2.1 28.2
00:50 1016 30 845 24.95 17.2 62.9 28 -1.6 29.2
00:55 1016 30 845 24.95 16.8 62.2 28 -1.7 28.9
01:00 1016 30 845 24.95 16.8 62.2 27 -2.1 28.2
01:05 1016 30 845 24.95 17 62.5 26 -2.3 27.8
01:10 1016 30 845 24.95 17.1 62.8 26 -2.4 27.7
01:15 1016 30 845 24.95 17.7 63.8 24 -3 26.6
01:20 1016 30 846 24.98 17.9 64.3 24 -2.7 27.1
01:25 1016 30 846 24.98 17.7 63.9 25 -2.3 27.9
01:30 1017 30.03 846 24.98 17.6 63.7 25 -2.4 27.7
01:35 1017 30.03 846 24.98 17.8 64 25 -2.3 27.9
01:40 1017 30.03 846 24.98 18.2 64.8 23 -3.3 26
01:45 1017 30.03 846 24.98 18.4 65.2 23 -2.8 27
01:50 1017 30.03 846 24.98 18.1 64.6 25 -2 28.3
01:55 1017 30.03 846 24.98 17.7 63.9 26 -2.1 28.3
02:00 1017 30.03 846 24.98 17.3 63.1 26 -2.4 27.7
02:05 1017 30.03 846 24.98 16.9 62.5 30 -0.5 31
02:10 1017 30.03 846 24.98 16 60.8 32 -0.6 30.9
02:15 1017 30.03 846 24.98 16 60.8 31 -1 30.3
02:20 1017 30.03 846 24.98 15.8 60.5 31 -1.3 29.7
02:25 1017 30.03 846 24.98 15.6 60 31 -1.6 29.2
02:30 1017 30.03 846 24.98 15.5 60 29 -2.5 27.4
02:35 1017 30.03 846 24.98 16.1 60.9 29 -2 28.3
02:40 1017 30.03 846 24.98 15.4 59.7 32 -1.3 29.6
02:45 1017 30.03 846 24.98 14.7 58.5 33 -1.5 29.4
02:50 1017 30.03 846 24.98 14.6 58.3 32 -1.7 28.9
02:55 1017 30.03 846 24.98 14.7 58.4 31 -2.1 28.3
03:00 1017 30.03 846 24.98 15 59 31 -2 28.4
03:05 1017 30.03 846 24.98 15 59.1 31 -1.9 28.5
03:10 1017 30.03 846 24.98 14.8 58.7 30 -2.4 27.6
03:15 1017 30.03 846 24.98 15.1 59.1 31 -2 28.4
03:20 1017 30.03 846 24.98 14.9 58.9 30 -2.5 27.5
03:25 1017 30.03 847 25.01 15.2 59.4 30 -2.1 28.2
03:30 1017 30.03 847 25.01 15.2 59.3 30 -2.3 27.9
03:35 1017 30.03 847 25.01 15.1 59.2 31 -2 28.4
03:40 1017 30.03 847 25.01 14.7 58.4 31 -2.4 27.8
03:45 1017 30.03 847 25.01 14.5 58.1 30 -2.6 27.3
03:50 1018 30.06 847 25.01 14.7 58.4 31 -2.1 28.3
03:55 1018 30.06 847 25.01 14.6 58.2 31 -2.4 27.6
04:00 1018 30.06 847 25.01 14.7 58.4 30 -2.7 27.2
04:05 1018 30.06 847 25.01 14.8 58.6 30 -2.4 27.7
04:10 1018 30.06 847 25.01 14.6 58.4 31 -2.4 27.7
04:15 1018 30.06 847 25.01 14.9 58.8 29 -2.9 26.7
04:20 1018 30.06 847 25.01 15.1 59.2 31 -2 28.4
04:25 1018 30.06 847 25.01 15 59.1 30 -2.3 27.8
04:30 1018 30.06 847 25.01 14.8 58.6 33 -1.3 29.6
04:35 1018 30.06 847 25.01 14.9 58.9 30 -2.2 28
04:40 1018 30.06 847 25.01 15 58.9 30 -2.2 28
04:45 1018 30.06 847 25.01 14.7 58.4 32 -1.7 28.9
04:50 1018 30.06 847 25.01 14.8 58.6 29 -2.9 26.8
04:55 1018 30.06 847 25.01 14.7 58.4 31 -2.3 27.9
05:00 1018 30.06 847 25.01 14.4 57.9 30 -2.9 26.8
05:05 1018 30.06 847 25.01 14.7 58.5 29 -3.1 26.4
05:10 1018 30.06 847 25.01 15.1 59.2 28 -3.3 26.1
05:15 1018 30.06 847 25.01 15.3 59.5 31 -1.8 28.8
05:20 1018 30.06 848 25.04 14.5 58.2 33 -1.5 29.3
05:25 1018 30.06 848 25.04 14.2 57.5 34 -1.5 29.3
05:30 1018 30.06 848 25.04 13.8 56.8 36 -1 30.2
05:35 1018 30.06 848 25.04 13.1 55.5 38 -0.7 30.7
05:40 1018 30.06 848 25.04 12.8 55 38 -1.2 29.8
05:45 1019 30.09 848 25.04 12.9 55.2 39 -0.8 30.6
05:50 1019 30.09 848 25.04 12.7 54.8 38 -1.2 29.8
05:55 1019 30.09 848 25.04 12.6 54.7 39 -0.9 30.4
06:00 1019 30.09 848 25.04 12.5 54.6 37 -1.7 28.9
06:05 1019 30.09 848 25.04 13.4 56.1 35 -1.7 28.9
06:10 1019 30.09 848 25.04 13.5 56.3 34 -2 28.5
06:15 1019 30.09 848 25.04 13.9 57 35 -1.4 29.5
06:20 1019 30.09 848 25.04 13.6 56.4 34 -2 28.3
06:25 1019 30.09 848 25.04 13.6 56.5 32 -2.8 27
06:30 1019 30.09 848 25.04 13.7 56.7 33 -2.3 27.8
06:35 1019 30.09 848 25.04 13.5 56.2 32 -2.7 27.1
06:40 1019 30.09 848 25.04 14.1 57.3 31 -2.6 27.4
06:45 1019 30.09 848 25.04 14.1 57.5 32 -2.1 28.1
06:50 1019 30.09 848 25.04 13.9 57.1 33 -2 28.4
06:55 1019 30.09 848 25.04 13.8 56.8 33 -2.1 28.2
07:00 1019 30.09 848 25.04 13.7 56.7 35 -1.6 29.2
07:05 1019 30.09 849 25.07 13.6 56.5 36 -1.3 29.6
07:10 1019 30.09 849 25.07 13.4 56.1 36 -1.4 29.5
07:15 1019 30.09 849 25.07 13.4 56.1 36 -1.4 29.5
07:20 1019 30.09 849 25.07 13.6 56.5 35 -1.6 29.1
07:25 1019 30.09 849 25.07 13.7 56.7 37 -0.5 31.1
07:30 1020 30.12 849 25.07 13.4 56.2 41 0.4 32.8
07:35 1020 30.12 849 25.07 13 55.3 41 -0.1 31.9
07:40 1020 30.12 849 25.07 13 55.5 39 -0.5 31.1
07:45 1020 30.12 849 25.07 13.3 56 39 -0.1 31.8
07:50 1020 30.12 849 25.07 13.5 56.2 41 0.6 33.1
07:55 1020 30.12 849 25.07 13.6 56.5 41 0.8 33.4
08:00 1020 30.12 849 25.07 14 57.2 38 0 32
08:05 1020 30.12 849 25.07 14.5 58 37 0.2 32.4
08:10 1020 30.12 849 25.07 14.7 58.5 41 1.5 34.8
08:15 1020 30.12 849 25.07 14.8 58.6 40 1.4 34.5
08:20 1020 30.12 849 25.07 14.9 58.7 42 2.3 36.1
08:25 1020 30.12 849 25.07 15.2 59.3 44 3 37.4
08:30 1020 30.12 849 25.07 15.6 60.2 44 3.7 38.6
08:35 1020 30.12 849 25.07 15.8 60.4 42 3.1 37.6
08:40 1020 30.12 849 25.07 15.9 60.6 41 2.8 37.1
08:45 1020 30.12 849 25.07 16.3 61.3 41 3.1 37.6
08:50 1020 30.12 849 25.07 16.8 62.2 37 2.3 36.1
08:55 1020 30.12 849 25.07 17.3 63.1 36 2.1 35.8
09:00 1020 30.12 849 25.07 17.9 64.3 33 1.4 34.5
09:05 1020 30.12 849 25.07 18.5 65.3 30 0.5 32.9
09:10 1020 30.12 849 25.07 19 66.2 30 1 33.8
09:15 1020 30.12 849 25.07 19.5 67.2 30 1.7 35.1
09:20 1020 30.12 849 25.07 20.1 68.3 29 1.6 34.9
09:25 1020 30.12 850 25.1 20.5 68.8 29 1.9 35.4
09:30 1020 30.12 850 25.1 20.6 69.1 29 2 35.6
09:35 1020 30.12 850 25.1 20.9 69.6 31 3.4 38.1
09:40 1020 30.12 850 25.1 21.5 70.7 27 1.8 35.3
09:45 1020 30.12 850 25.1 21.9 71.5 24 0.4 32.7
09:50 1020 30.12 850 25.1 22.4 72.3 21 -0.9 30.3
09:55 1020 30.12 850 25.1 22.8 73.1 20 -1.2 29.8
10:00 1020 30.12 850 25.1 23 73.5 19 -1.9 28.5
10:05 1020 30.12 850 25.1 23.5 74.3 18 -2.3 27.8
10:10 1020 30.12 850 25.1 23.9 75 18 -1.3 29.6
10:15 1020 30.12 850 25.1 24.4 76 17 -2.1 28.2
10:20 1021 30.15 850 25.1 24.6 76.3 18 -1.3 29.7
10:25 1021 30.15 850 25.1 24.3 75.8 18 -1 30.2
10:30 1021 30.15 850 25.1 23.8 74.9 19 -1 30.2
10:35 1021 30.15 850 25.1 23.7 74.7 20 -0.2 31.6
10:40 1021 30.15 850 25.1 23.6 74.5 20 -0.5 31.2
10:45 1021 30.15 850 25.1 23.9 75 22 1.4 34.5
10:50 1021 30.15 850 25.1 23.1 73.6 21 -0.5 31.1
10:55 1021 30.15 850 25.1 23.4 74.2 20 -0.7 30.7
11:00 1021 30.15 850 25.1 24.1 75.5 21 0.5 32.9
11:05 1021 30.15 850 25.1 24.1 75.5 21 0.7 33.2
11:10 1021 30.15 850 25.1 23.4 74.1 21 0 32.1
11:15 1021 30.15 850 25.1 23.4 74 21 0.2 32.4
11:20 1021 30.15 850 25.1 23.7 74.6 19 -1 30.3
11:25 1021 30.15 850 25.1 24 75.2 19 -0.8 30.6
11:30 1021 30.15 850 25.1 23.7 74.7 19 -1.1 30
11:35 1021 30.15 850 25.1 24.7 76.4 18 -1.3 29.7
11:40 1021 30.15 850 25.1 25.4 77.6 18 -0.2 31.7
11:45 1021 30.15 850 25.1 25.2 77.3 17 -1.5 29.3
11:50 1021 30.15 850 25.1 24.8 76.6 18 -1 30.2
11:55 1021 30.15 850 25.1 24.8 76.6 17 -2 28.5
12:00 1021 30.15 850 25.1 24.3 75.7 18 -1.3 29.6
12:05 1021 30.15 850 25.1 24.8 76.6 17 -1.4 29.6
12:10 1021 30.15 850 25.1 24.7 76.4 17 -1.7 28.9
12:15 1021 30.15 850 25.1 25 77 16 -1.9 28.5
12:20 1021 30.15 850 25.1 24.7 76.5 17 -1.8 28.8
12:25 1021 30.15 850 25.1 24.8 76.6 17 -1.6 29.2
12:30 1021 30.15 850 25.1 24.9 76.8 18 -1.2 29.9
12:35 1020 30.12 850 25.1 25 76.9 17 -1.8 28.8
12:40 1020 30.12 850 25.1 25 77 17 -1.2 29.8
12:45 1020 30.12 850 25.1 25.5 78 16 -1.7 28.9
12:50 1020 30.12 850 25.1 26 78.8 16 -1.8 28.7
12:55 1020 30.12 850 25.1 25.8 78.4 16 -1.3 29.6
13:00 1020 30.12 850 25.1 25.2 77.3 17 -1.1 30
13:05 1020 30.12 850 25.1 25.4 77.8 18 -0.7 30.7
13:10 1020 30.12 850 25.1 25.9 78.7 15 -2.1 28.2
13:15 1020 30.12 850 25.1 26.6 79.8 15 -1.5 29.3
13:20 1020 30.12 850 25.1 26.8 80.3 15 -1.7 29
13:25 1020 30.12 850 25.1 27 80.6 15 -1.2 29.9
13:30 1020 30.12 849 25.07 27 80.6 15 -1.5 29.4
13:35 1020 30.12 849 25.07 27.1 80.9 16 -0.9 30.4
13:40 1020 30.12 849 25.07 27.5 81.5 14 -1.7 29
13:45 1020 30.12 849 25.07 27.5 81.4 15 -1.4 29.5
13:50 1020 30.12 849 25.07 28 82.5 15 -1 30.2
13:55 1020 30.12 849 25.07 28.1 82.6 15 -0.3 31.4
14:00 1020 30.12 849 25.07 28 82.4 15 -0.6 30.9
14:05 1020 30.12 850 25.1 28.1 82.5 15 -0.8 30.6
14:10 1020 30.12 850 25.1 27.5 81.6 17 0.6 33.1
14:15 1020 30.12 850 25.1 27.1 80.8 17 0.3 32.6
14:20 1020 30.12 850 25.1 27 80.6 16 -1 30.2
14:25 1020 30.12 850 25.1 26.9 80.4 16 -1 30.1
14:30 1020 30.12 850 25.1 26.5 79.6 17 -0.1 31.8
14:35 1020 30.12 850 25.1 26.8 80.3 17 0.4 32.6
14:40 1020 30.12 850 25.1 27.4 81.3 15 -0.8 30.5
14:45 1020 30.12 850 25.1 27.9 82.1 15 -1.1 30
14:50 1020 30.12 850 25.1 27.9 82.1 15 -1.1 30.1
14:55 1020 30.12 850 25.1 27.8 82.1 15 -0.9 30.3
15:00 1020 30.12 850 25.1 27.7 81.8 15 -1 30.2
15:05 1020 30.12 850 25.1 27.9 82.1 16 -0.2 31.7
15:10 1020 30.12 850 25.1 28.2 82.7 15 -1 30.2
15:15 1020 30.12 849 25.07 27.7 81.9 17 0.4 32.8
15:20 1020 30.12 849 25.07 27.1 80.8 17 0 32
15:25 1020 30.12 849 25.07 26.7 80 17 -0.5 31.1
15:30 1020 30.12 849 25.07 26.4 79.6 17 -0.7 30.8
15:35 1020 30.12 849 25.07 26.5 79.6 16 -1.4 29.5
15:40 1020 30.12 849 25.07 26.5 79.8 17 -0.5 31
15:45 1020 30.12 849 25.07 26.6 79.9 17 -0.1 31.8
15:50 1020 30.12 849 25.07 26.7 80.1 17 -0.4 31.2
15:55 1020 30.12 849 25.07 26.9 80.5 17 -0.2 31.6
16:00 1020 30.12 849 25.07 26.9 80.4 16 -0.7 30.8
16:05 1020 30.12 849 25.07 26.7 80.1 17 -0.5 31.2
16:10 1020 30.12 849 25.07 26.1 79 18 0 32.1
16:15 1020 30.12 849 25.07 26.6 79.9 17 -0.4 31.3
16:20 1020 30.12 849 25.07 26.9 80.5 16 -0.6 31
16:25 1020 30.12 849 25.07 26.9 80.4 15 -1.3 29.7
16:30 1020 30.12 849 25.07 26.9 80.3 17 -0.2 31.7
16:35 1020 30.12 849 25.07 27.4 81.3 18 0.9 33.7
16:40 1020 30.12 849 25.07 27.9 82.1 15 -0.5 31.1
16:45 1020 30.12 850 25.1 27.6 81.8 17 0.7 33.3
16:50 1020 30.12 850 25.1 27.2 81 16 -0.9 30.5
16:55 1020 30.12 850 25.1 26.8 80.2 18 0.7 33.2
17:00 1020 30.12 850 25.1 27.1 80.8 17 -0.1 31.9
17:05 1020 30.12 850 25.1 27.8 82 15 -0.7 30.8
17:10 1021 30.15 850 25.1 28.1 82.5 17 0.8 33.4
17:15 1021 30.15 850 25.1 27.8 82.1 17 1 33.8
17:20 1021 30.15 850 25.1 27.6 81.7 17 0.7 33.3
17:25 1021 30.15 850 25.1 27.4 81.2 16 0 32
17:30 1021 30.15 850 25.1 27 80.6 17 -0.1 31.8
17:35 1021 30.15 850 25.1 27 80.6 17 0.5 33
17:40 1021 30.15 850 25.1 27.1 80.8 17 0.5 32.9
17:45 1021 30.15 850 25.1 27 80.6 18 0.9 33.6
17:50 1021 30.15 850 25.1 27.2 81 17 0.2 32.3
17:55 1021 30.15 850 25.1 27.1 80.8 18 1.1 34
18:00 1021 30.15 850 25.1 26.9 80.3 18 0.7 33.3
18:05 1021 30.15 850 25.1 26.7 80 18 0.6 33.2
18:10 1021 30.15 850 25.1 27 80.5 17 0.1 32.2
18:15 1021 30.15 850 25.1 27.1 80.8 17 0.2 32.4
18:20 1021 30.15 850 25.1 26.9 80.3 18 0.8 33.4
18:25 1021 30.15 851 25.13 26.7 80 18 1 33.8
18:30 1021 30.15 851 25.13 26.5 79.8 19 1.5 34.7
18:35 1021 30.15 851 25.13 26.4 79.5 19 1.1 34.1
18:40 1021 30.15 851 25.13 26.3 79.4 19 1.5 34.6
18:45 1022 30.18 851 25.13 26.3 79.4 20 1.9 35.4
18:50 1022 30.18 851 25.13 26.3 79.3 20 1.9 35.4
18:55 1022 30.18 851 25.13 26.3 79.3 21 2.2 35.9
19:00 1022 30.18 851 25.13 26.2 79.1 20 1.9 35.4
19:05 1022 30.18 851 25.13 26.1 78.9 21 2.4 36.4
19:10 1022 30.18 851 25.13 26 78.8 21 2 35.5
19:15 1022 30.18 851 25.13 25.9 78.6 22 2.7 36.8
19:20 1022 30.18 851 25.13 25.6 78.1 21 2.2 36
19:25 1022 30.18 851 25.13 25.5 77.8 20 1.4 34.6
19:30 1022 30.18 851 25.13 25.4 77.7 22 2.4 36.4
19:35 1022 30.18 851 25.13 25.3 77.5 23 2.8 37
19:40 1022 30.18 851 25.13 25.2 77.3 24 3.7 38.6
19:45 1022 30.18 851 25.13 25 77 23 2.8 37
19:50 1022 30.18 852 25.16 24.9 76.8 24 3.1 37.6
19:55 1022 30.18 852 25.16 24.8 76.6 24 3.2 37.8
20:00 1022 30.18 852 25.16 24.5 76.2 25 3.3 37.9
20:05 1022 30.18 852 25.16 24.3 75.8 25 3.2 37.7
20:10 1023 30.21 852 25.16 24.1 75.3 25 3.3 37.9
20:15 1023 30.21 852 25.16 23.9 74.9 26 3.4 38
20:20 1023 30.21 852 25.16 23.6 74.5 27 3.6 38.4
20:25 1023 30.21 852 25.16 23.2 73.8 28 4 39.2
20:30 1023 30.21 852 25.16 22.5 72.5 31 4.5 40.2
20:35 1023 30.21 852 25.16 21.9 71.3 32 4.5 40.2
20:40 1023 30.21 852 25.16 21.5 70.7 32 4.4 39.9
20:45 1023 30.21 852 25.16 21.4 70.4 33 4.5 40.1
20:50 1023 30.21 852 25.16 21 69.8 33 4.1 39.4
20:55 1023 30.21 852 25.16 20.6 69 34 4.5 40.1
21:00 1023 30.21 852 25.16 20.3 68.6 36 5 41
21:05 1023 30.21 853 25.19 20.1 68.2 34 3.9 39
21:10 1024 30.24 853 25.19 19.5 67.1 40 5.6 42.2
21:15 1024 30.24 853 25.19 18.7 65.6 40 5.1 41.1
21:20 1024 30.24 853 25.19 19.5 67.1 33 3 37.3
21:25 1024 30.24 853 25.19 19.7 67.5 34 3.4 38.1
21:30 1024 30.24 853 25.19 19.9 67.7 31 2.5 36.5
21:35 1024 30.24 853 25.19 20 67.9 32 2.9 37.3
21:40 1024 30.24 853 25.19 19.9 67.7 30 2 35.7
21:45 1024 30.24 853 25.19 19.9 67.8 32 3.1 37.5
21:50 1024 30.24 853 25.19 19.4 67 32 2.3 36.2
21:55 1024 30.24 853 25.19 19.1 66.3 34 2.8 37.1
22:00 1024 30.24 853 25.19 18.5 65.3 34 2.5 36.6
22:05 1024 30.24 853 25.19 18.3 65 37 3.7 38.7
22:10 1024 30.24 853 25.19 18.3 65 34 2.3 36.1
22:15 1024 30.24 854 25.22 18.6 65.6 34 2.5 36.4
22:20 1024 30.24 854 25.22 18.8 65.8 34 2.6 36.6
22:25 1024 30.24 854 25.22 18.9 66 34 2.7 36.8
22:30 1024 30.24 854 25.22 19.3 66.8 33 2.7 36.8
22:35 1024 30.24 854 25.22 19.8 67.6 32 2.8 37
22:40 1024 30.24 854 25.22 20.1 68.1 32 2.9 37.2
22:45 1024 30.24 854 25.22 20.4 68.7 31 2.9 37.1
22:50 1024 30.24 854 25.22 20.6 69 31 3 37.4
22:55 1024 30.24 854 25.22 20.6 69.1 31 3 37.5
23:00 1025 30.27 854 25.22 20.6 69.1 31 3.1 37.7
23:05 1025 30.27 854 25.22 20.6 69 32 3.2 37.8
23:10 1025 30.27 854 25.22 20.5 68.8 32 3.2 37.8
23:15 1025 30.27 854 25.22 20.4 68.7 32 3.3 38
23:20 1025 30.27 854 25.22 20.3 68.5 32 3.4 38.1
23:25 1025 30.27 854 25.22 20.3 68.5 33 3.5 38.3
23:30 1025 30.27 854 25.22 20.3 68.5 33 3.5 38.3
23:35 1025 30.27 854 25.22 20.3 68.5 33 3.6 38.4
23:40 1025 30.27 854 25.22 20.3 68.5 33 3.5 38.4
23:45 1025 30.27 854 25.22 20.4 68.7 32 3.5 38.4
23:50 1025 30.27 854 25.22 20.4 68.7 33 3.6 38.4
23:55 1025 30.27 854 25.22 20.3 68.5 33 3.5 38.4
24:00 1025 30.27 854 25.22 20.1 68.3 33 3.6 38.5